sensor_id;sensor_type;location;lat;lon;timestamp;P1;durP1;ratioP1;P2;durP2;ratioP2
27305;SDS011;14792;50.886;6.468;2023-07-13T00:00:22;3.83;;;1.40;;
27305;SDS011;14792;50.886;6.468;2023-07-13T00:03:24;8.03;;;1.37;;
27305;SDS011;14792;50.886;6.468;2023-07-13T00:06:25;7.85;;;1.52;;
27305;SDS011;14792;50.886;6.468;2023-07-13T00:09:27;8.53;;;1.55;;
27305;SDS011;14792;50.886;6.468;2023-07-13T00:12:32;6.47;;;1.45;;
27305;SDS011;14792;50.886;6.468;2023-07-13T00:15:33;7.45;;;1.60;;
27305;SDS011;14792;50.886;6.468;2023-07-13T00:18:34;6.12;;;1.75;;
27305;SDS011;14792;50.886;6.468;2023-07-13T00:21:36;7.35;;;1.47;;
27305;SDS011;14792;50.886;6.468;2023-07-13T00:24:38;4.83;;;1.45;;
27305;SDS011;14792;50.886;6.468;2023-07-13T00:27:39;6.03;;;1.37;;
27305;SDS011;14792;50.886;6.468;2023-07-13T00:30:41;8.00;;;1.47;;
27305;SDS011;14792;50.886;6.468;2023-07-13T00:33:43;7.78;;;1.95;;
27305;SDS011;14792;50.886;6.468;2023-07-13T00:36:44;9.33;;;1.90;;
27305;SDS011;14792;50.886;6.468;2023-07-13T00:39:46;6.20;;;1.52;;
27305;SDS011;14792;50.886;6.468;2023-07-13T00:42:47;4.67;;;1.47;;
27305;SDS011;14792;50.886;6.468;2023-07-13T00:48:51;6.53;;;1.72;;
27305;SDS011;14792;50.886;6.468;2023-07-13T00:51:55;4.65;;;1.30;;
27305;SDS011;14792;50.886;6.468;2023-07-13T00:54:56;4.92;;;1.40;;
27305;SDS011;14792;50.886;6.468;2023-07-13T00:57:57;5.62;;;1.90;;
27305;SDS011;14792;50.886;6.468;2023-07-13T01:00:59;7.70;;;1.42;;
27305;SDS011;14792;50.886;6.468;2023-07-13T01:04:01;8.08;;;1.77;;
27305;SDS011;14792;50.886;6.468;2023-07-13T01:07:02;13.05;;;3.75;;
27305;SDS011;14792;50.886;6.468;2023-07-13T01:10:04;6.92;;;2.17;;
27305;SDS011;14792;50.886;6.468;2023-07-13T01:13:07;3.45;;;1.82;;
27305;SDS011;14792;50.886;6.468;2023-07-13T01:19:15;8.45;;;2.20;;
27305;SDS011;14792;50.886;6.468;2023-07-13T01:22:14;7.05;;;2.25;;
27305;SDS011;14792;50.886;6.468;2023-07-13T01:25:15;6.62;;;2.58;;
27305;SDS011;14792;50.886;6.468;2023-07-13T01:28:16;10.95;;;2.02;;
27305;SDS011;14792;50.886;6.468;2023-07-13T01:31:18;7.55;;;1.47;;
27305;SDS011;14792;50.886;6.468;2023-07-13T01:34:19;7.90;;;2.27;;
27305;SDS011;14792;50.886;6.468;2023-07-13T01:37:21;5.17;;;1.65;;
27305;SDS011;14792;50.886;6.468;2023-07-13T01:40:23;8.03;;;1.80;;
27305;SDS011;14792;50.886;6.468;2023-07-13T01:43:24;7.05;;;2.45;;
27305;SDS011;14792;50.886;6.468;2023-07-13T01:46:26;8.00;;;2.02;;
27305;SDS011;14792;50.886;6.468;2023-07-13T01:49:27;9.55;;;1.55;;
27305;SDS011;14792;50.886;6.468;2023-07-13T01:52:29;8.85;;;2.00;;
27305;SDS011;14792;50.886;6.468;2023-07-13T01:55:31;10.75;;;2.05;;
27305;SDS011;14792;50.886;6.468;2023-07-13T01:58:32;6.95;;;1.75;;
27305;SDS011;14792;50.886;6.468;2023-07-13T02:01:34;11.10;;;1.80;;
27305;SDS011;14792;50.886;6.468;2023-07-13T02:04:35;5.15;;;1.30;;
27305;SDS011;14792;50.886;6.468;2023-07-13T02:07:38;6.17;;;1.50;;
27305;SDS011;14792;50.886;6.468;2023-07-13T02:10:39;4.75;;;1.55;;
27305;SDS011;14792;50.886;6.468;2023-07-13T02:13:41;3.08;;;1.40;;
27305;SDS011;14792;50.886;6.468;2023-07-13T02:16:43;4.50;;;1.77;;
27305;SDS011;14792;50.886;6.468;2023-07-13T02:19:44;5.03;;;1.25;;
27305;SDS011;14792;50.886;6.468;2023-07-13T02:22:46;5.97;;;1.60;;
27305;SDS011;14792;50.886;6.468;2023-07-13T02:25:47;9.08;;;1.55;;
27305;SDS011;14792;50.886;6.468;2023-07-13T02:28:49;6.50;;;1.40;;
27305;SDS011;14792;50.886;6.468;2023-07-13T02:31:51;3.27;;;1.30;;
27305;SDS011;14792;50.886;6.468;2023-07-13T02:34:52;5.67;;;1.52;;
27305;SDS011;14792;50.886;6.468;2023-07-13T02:37:54;4.62;;;1.17;;
27305;SDS011;14792;50.886;6.468;2023-07-13T02:40:55;6.33;;;1.30;;
27305;SDS011;14792;50.886;6.468;2023-07-13T02:43:57;4.33;;;1.57;;
27305;SDS011;14792;50.886;6.468;2023-07-13T02:46:59;8.30;;;1.67;;
27305;SDS011;14792;50.886;6.468;2023-07-13T02:50:00;5.05;;;1.35;;
27305;SDS011;14792;50.886;6.468;2023-07-13T02:53:02;6.80;;;1.45;;
27305;SDS011;14792;50.886;6.468;2023-07-13T02:56:04;4.58;;;1.57;;
27305;SDS011;14792;50.886;6.468;2023-07-13T02:59:05;7.42;;;1.57;;
27305;SDS011;14792;50.886;6.468;2023-07-13T03:02:08;7.15;;;1.62;;
27305;SDS011;14792;50.886;6.468;2023-07-13T03:05:10;7.60;;;1.67;;
27305;SDS011;14792;50.886;6.468;2023-07-13T03:08:11;7.37;;;1.50;;
27305;SDS011;14792;50.886;6.468;2023-07-13T03:11:14;4.50;;;1.55;;
27305;SDS011;14792;50.886;6.468;2023-07-13T03:14:15;6.70;;;1.50;;
27305;SDS011;14792;50.886;6.468;2023-07-13T03:17:16;6.97;;;1.62;;
27305;SDS011;14792;50.886;6.468;2023-07-13T03:20:18;7.15;;;1.85;;
27305;SDS011;14792;50.886;6.468;2023-07-13T03:23:20;9.35;;;1.85;;
27305;SDS011;14792;50.886;6.468;2023-07-13T03:26:21;7.37;;;1.87;;
27305;SDS011;14792;50.886;6.468;2023-07-13T03:29:23;9.95;;;2.10;;
27305;SDS011;14792;50.886;6.468;2023-07-13T03:32:24;10.45;;;2.33;;
27305;SDS011;14792;50.886;6.468;2023-07-13T03:35:26;9.18;;;1.95;;
27305;SDS011;14792;50.886;6.468;2023-07-13T03:38:27;6.65;;;1.85;;
27305;SDS011;14792;50.886;6.468;2023-07-13T03:41:29;7.65;;;2.42;;
27305;SDS011;14792;50.886;6.468;2023-07-13T03:44:31;16.87;;;2.08;;
27305;SDS011;14792;50.886;6.468;2023-07-13T03:47:32;9.33;;;2.30;;
27305;SDS011;14792;50.886;6.468;2023-07-13T03:50:34;6.37;;;1.75;;
27305;SDS011;14792;50.886;6.468;2023-07-13T03:53:39;8.53;;;2.40;;
27305;SDS011;14792;50.886;6.468;2023-07-13T03:56:39;9.23;;;2.00;;
27305;SDS011;14792;50.886;6.468;2023-07-13T03:59:41;10.23;;;2.52;;
27305;SDS011;14792;50.886;6.468;2023-07-13T04:02:43;8.60;;;2.22;;
27305;SDS011;14792;50.886;6.468;2023-07-13T04:05:44;12.73;;;2.42;;
27305;SDS011;14792;50.886;6.468;2023-07-13T04:08:46;6.17;;;1.77;;
27305;SDS011;14792;50.886;6.468;2023-07-13T04:11:47;5.92;;;1.65;;
27305;SDS011;14792;50.886;6.468;2023-07-13T04:14:49;7.05;;;2.00;;
27305;SDS011;14792;50.886;6.468;2023-07-13T04:17:50;6.40;;;1.90;;
27305;SDS011;14792;50.886;6.468;2023-07-13T04:20:52;12.03;;;2.30;;
27305;SDS011;14792;50.886;6.468;2023-07-13T04:23:54;11.20;;;2.17;;
27305;SDS011;14792;50.886;6.468;2023-07-13T04:26:55;8.93;;;2.25;;
27305;SDS011;14792;50.886;6.468;2023-07-13T04:29:57;9.13;;;1.75;;
27305;SDS011;14792;50.886;6.468;2023-07-13T04:32:59;10.15;;;1.67;;
27305;SDS011;14792;50.886;6.468;2023-07-13T04:36:00;8.48;;;1.52;;
27305;SDS011;14792;50.886;6.468;2023-07-13T04:39:02;11.15;;;1.77;;
27305;SDS011;14792;50.886;6.468;2023-07-13T04:42:04;7.40;;;2.10;;
27305;SDS011;14792;50.886;6.468;2023-07-13T04:45:08;13.43;;;2.30;;
27305;SDS011;14792;50.886;6.468;2023-07-13T04:48:07;14.28;;;2.58;;
27305;SDS011;14792;50.886;6.468;2023-07-13T04:51:09;10.25;;;2.17;;
27305;SDS011;14792;50.886;6.468;2023-07-13T04:54:10;6.70;;;1.82;;
27305;SDS011;14792;50.886;6.468;2023-07-13T04:57:12;10.50;;;2.05;;
27305;SDS011;14792;50.886;6.468;2023-07-13T05:00:14;11.63;;;2.20;;
27305;SDS011;14792;50.886;6.468;2023-07-13T05:03:15;9.15;;;2.45;;
27305;SDS011;14792;50.886;6.468;2023-07-13T05:06:17;5.47;;;1.98;;
27305;SDS011;14792;50.886;6.468;2023-07-13T05:09:18;7.78;;;2.27;;
27305;SDS011;14792;50.886;6.468;2023-07-13T05:12:20;10.10;;;2.37;;
27305;SDS011;14792;50.886;6.468;2023-07-13T05:15:22;9.18;;;1.95;;
27305;SDS011;14792;50.886;6.468;2023-07-13T05:18:23;10.95;;;2.22;;
27305;SDS011;14792;50.886;6.468;2023-07-13T05:21:25;14.00;;;2.62;;
27305;SDS011;14792;50.886;6.468;2023-07-13T05:24:26;20.37;;;2.35;;
27305;SDS011;14792;50.886;6.468;2023-07-13T05:27:28;20.88;;;3.08;;
27305;SDS011;14792;50.886;6.468;2023-07-13T05:30:30;10.55;;;2.58;;
27305;SDS011;14792;50.886;6.468;2023-07-13T05:33:31;11.73;;;2.67;;
27305;SDS011;14792;50.886;6.468;2023-07-13T05:36:33;8.40;;;2.37;;
27305;SDS011;14792;50.886;6.468;2023-07-13T05:39:34;17.23;;;2.80;;
27305;SDS011;14792;50.886;6.468;2023-07-13T05:42:38;9.08;;;2.58;;
27305;SDS011;14792;50.886;6.468;2023-07-13T05:45:39;10.88;;;2.60;;
27305;SDS011;14792;50.886;6.468;2023-07-13T05:48:41;12.60;;;2.72;;
27305;SDS011;14792;50.886;6.468;2023-07-13T05:51:42;10.40;;;2.50;;
27305;SDS011;14792;50.886;6.468;2023-07-13T05:54:44;11.73;;;2.90;;
27305;SDS011;14792;50.886;6.468;2023-07-13T05:57:46;13.50;;;2.65;;
27305;SDS011;14792;50.886;6.468;2023-07-13T06:00:48;15.18;;;2.85;;
27305;SDS011;14792;50.886;6.468;2023-07-13T06:03:49;13.70;;;2.87;;
27305;SDS011;14792;50.886;6.468;2023-07-13T06:06:50;11.83;;;2.75;;
27305;SDS011;14792;50.886;6.468;2023-07-13T06:09:52;10.78;;;3.10;;
27305;SDS011;14792;50.886;6.468;2023-07-13T06:12:53;10.32;;;2.85;;
27305;SDS011;14792;50.886;6.468;2023-07-13T06:15:55;10.43;;;2.15;;
27305;SDS011;14792;50.886;6.468;2023-07-13T06:18:57;12.47;;;2.37;;
27305;SDS011;14792;50.886;6.468;2023-07-13T06:21:58;12.93;;;3.05;;
27305;SDS011;14792;50.886;6.468;2023-07-13T06:25:00;10.93;;;2.70;;
27305;SDS011;14792;50.886;6.468;2023-07-13T06:28:01;13.55;;;2.98;;
27305;SDS011;14792;50.886;6.468;2023-07-13T06:31:05;11.90;;;2.92;;
27305;SDS011;14792;50.886;6.468;2023-07-13T06:34:05;10.88;;;2.85;;
27305;SDS011;14792;50.886;6.468;2023-07-13T06:37:06;13.45;;;3.00;;
27305;SDS011;14792;50.886;6.468;2023-07-13T06:43:09;12.28;;;3.30;;
27305;SDS011;14792;50.886;6.468;2023-07-13T06:46:11;7.95;;;2.20;;
27305;SDS011;14792;50.886;6.468;2023-07-13T06:49:13;18.27;;;2.98;;
27305;SDS011;14792;50.886;6.468;2023-07-13T06:52:14;11.68;;;2.98;;
27305;SDS011;14792;50.886;6.468;2023-07-13T06:55:16;9.73;;;2.52;;
27305;SDS011;14792;50.886;6.468;2023-07-13T06:58:18;11.08;;;2.80;;
27305;SDS011;14792;50.886;6.468;2023-07-13T07:01:19;10.18;;;2.70;;
27305;SDS011;14792;50.886;6.468;2023-07-13T07:04:21;12.20;;;3.10;;
27305;SDS011;14792;50.886;6.468;2023-07-13T07:07:23;11.65;;;2.83;;
27305;SDS011;14792;50.886;6.468;2023-07-13T07:10:24;12.98;;;3.35;;
27305;SDS011;14792;50.886;6.468;2023-07-13T07:13:25;12.33;;;3.45;;
27305;SDS011;14792;50.886;6.468;2023-07-13T07:16:27;11.33;;;2.75;;
27305;SDS011;14792;50.886;6.468;2023-07-13T07:19:29;15.60;;;3.15;;
27305;SDS011;14792;50.886;6.468;2023-07-13T07:22:30;11.85;;;3.40;;
27305;SDS011;14792;50.886;6.468;2023-07-13T07:25:32;11.30;;;2.80;;
27305;SDS011;14792;50.886;6.468;2023-07-13T07:28:33;8.63;;;2.83;;
27305;SDS011;14792;50.886;6.468;2023-07-13T07:31:35;10.63;;;2.92;;
27305;SDS011;14792;50.886;6.468;2023-07-13T07:34:37;8.13;;;2.60;;
27305;SDS011;14792;50.886;6.468;2023-07-13T07:40:40;11.73;;;2.60;;
27305;SDS011;14792;50.886;6.468;2023-07-13T07:43:41;10.15;;;2.40;;
27305;SDS011;14792;50.886;6.468;2023-07-13T07:46:43;8.18;;;2.08;;
27305;SDS011;14792;50.886;6.468;2023-07-13T07:49:45;8.75;;;2.50;;
27305;SDS011;14792;50.886;6.468;2023-07-13T07:52:46;10.43;;;2.55;;
27305;SDS011;14792;50.886;6.468;2023-07-13T07:55:48;11.35;;;2.75;;
27305;SDS011;14792;50.886;6.468;2023-07-13T07:58:49;12.33;;;2.58;;
27305;SDS011;14792;50.886;6.468;2023-07-13T08:01:51;8.28;;;2.40;;
27305;SDS011;14792;50.886;6.468;2023-07-13T08:04:52;7.83;;;2.40;;
27305;SDS011;14792;50.886;6.468;2023-07-13T08:07:54;11.08;;;2.22;;
27305;SDS011;14792;50.886;6.468;2023-07-13T08:10:56;8.20;;;2.62;;
27305;SDS011;14792;50.886;6.468;2023-07-13T08:13:57;9.88;;;2.30;;
27305;SDS011;14792;50.886;6.468;2023-07-13T08:16:59;9.23;;;2.05;;
27305;SDS011;14792;50.886;6.468;2023-07-13T08:20:00;8.10;;;2.35;;
27305;SDS011;14792;50.886;6.468;2023-07-13T08:23:02;7.33;;;1.98;;
27305;SDS011;14792;50.886;6.468;2023-07-13T08:26:04;6.97;;;2.00;;
27305;SDS011;14792;50.886;6.468;2023-07-13T08:29:05;12.03;;;2.25;;
27305;SDS011;14792;50.886;6.468;2023-07-13T08:32:07;10.63;;;2.05;;
27305;SDS011;14792;50.886;6.468;2023-07-13T08:35:09;6.25;;;1.90;;
27305;SDS011;14792;50.886;6.468;2023-07-13T08:38:11;12.28;;;2.35;;
27305;SDS011;14792;50.886;6.468;2023-07-13T08:41:14;9.83;;;2.15;;
27305;SDS011;14792;50.886;6.468;2023-07-13T08:44:18;8.55;;;2.33;;
27305;SDS011;14792;50.886;6.468;2023-07-13T08:47:16;8.58;;;1.67;;
27305;SDS011;14792;50.886;6.468;2023-07-13T08:50:18;9.53;;;1.87;;
27305;SDS011;14792;50.886;6.468;2023-07-13T08:53:19;10.38;;;2.40;;
27305;SDS011;14792;50.886;6.468;2023-07-13T08:56:24;8.03;;;2.00;;
27305;SDS011;14792;50.886;6.468;2023-07-13T08:59:26;11.50;;;2.15;;
27305;SDS011;14792;50.886;6.468;2023-07-13T09:02:52;6.95;;;1.87;;
27305;SDS011;14792;50.886;6.468;2023-07-13T09:05:34;6.55;;;1.92;;
27305;SDS011;14792;50.886;6.468;2023-07-13T09:11:47;6.55;;;1.85;;
27305;SDS011;14792;50.886;6.468;2023-07-13T09:14:53;7.33;;;1.92;;
27305;SDS011;14792;50.886;6.468;2023-07-13T09:17:55;6.90;;;1.98;;
27305;SDS011;14792;50.886;6.468;2023-07-13T09:21:00;10.40;;;1.70;;
27305;SDS011;14792;50.886;6.468;2023-07-13T09:27:02;7.47;;;2.12;;
27305;SDS011;14792;50.886;6.468;2023-07-13T09:30:16;5.87;;;1.57;;
27305;SDS011;14792;50.886;6.468;2023-07-13T09:33:17;9.43;;;2.27;;
27305;SDS011;14792;50.886;6.468;2023-07-13T09:36:25;10.38;;;2.20;;
27305;SDS011;14792;50.886;6.468;2023-07-13T09:39:35;10.32;;;2.00;;
27305;SDS011;14792;50.886;6.468;2023-07-13T09:42:37;9.23;;;1.80;;
27305;SDS011;14792;50.886;6.468;2023-07-13T09:45:39;7.87;;;1.70;;
27305;SDS011;14792;50.886;6.468;2023-07-13T09:48:42;9.88;;;1.82;;
27305;SDS011;14792;50.886;6.468;2023-07-13T09:51:42;5.53;;;1.67;;
27305;SDS011;14792;50.886;6.468;2023-07-13T09:54:44;5.97;;;1.52;;
27305;SDS011;14792;50.886;6.468;2023-07-13T09:57:46;7.40;;;1.50;;
27305;SDS011;14792;50.886;6.468;2023-07-13T10:00:57;7.53;;;1.80;;
27305;SDS011;14792;50.886;6.468;2023-07-13T10:03:57;7.67;;;2.02;;
27305;SDS011;14792;50.886;6.468;2023-07-13T10:07:06;8.40;;;1.70;;
27305;SDS011;14792;50.886;6.468;2023-07-13T10:10:15;9.58;;;1.75;;
27305;SDS011;14792;50.886;6.468;2023-07-13T10:16:37;9.18;;;1.67;;
27305;SDS011;14792;50.886;6.468;2023-07-13T10:19:39;10.68;;;2.20;;
27305;SDS011;14792;50.886;6.468;2023-07-13T10:25:45;6.05;;;1.77;;
27305;SDS011;14792;50.886;6.468;2023-07-13T10:28:47;8.23;;;1.90;;
27305;SDS011;14792;50.886;6.468;2023-07-13T10:31:48;5.33;;;1.60;;
27305;SDS011;14792;50.886;6.468;2023-07-13T10:34:50;7.67;;;1.75;;
27305;SDS011;14792;50.886;6.468;2023-07-13T10:37:52;5.65;;;1.62;;
27305;SDS011;14792;50.886;6.468;2023-07-13T10:43:57;6.20;;;1.65;;
27305;SDS011;14792;50.886;6.468;2023-07-13T10:47:00;6.85;;;1.72;;
27305;SDS011;14792;50.886;6.468;2023-07-13T10:50:00;4.78;;;1.52;;
27305;SDS011;14792;50.886;6.468;2023-07-13T10:53:03;6.40;;;1.67;;
27305;SDS011;14792;50.886;6.468;2023-07-13T10:56:04;10.25;;;2.00;;
27305;SDS011;14792;50.886;6.468;2023-07-13T10:59:10;5.87;;;1.67;;
27305;SDS011;14792;50.886;6.468;2023-07-13T11:02:13;5.17;;;1.67;;
27305;SDS011;14792;50.886;6.468;2023-07-13T11:05:25;6.78;;;1.82;;
27305;SDS011;14792;50.886;6.468;2023-07-13T11:08:20;6.37;;;1.60;;
27305;SDS011;14792;50.886;6.468;2023-07-13T11:14:38;7.92;;;2.08;;
27305;SDS011;14792;50.886;6.468;2023-07-13T11:17:47;7.87;;;1.80;;
27305;SDS011;14792;50.886;6.468;2023-07-13T11:20:52;4.97;;;1.98;;
27305;SDS011;14792;50.886;6.468;2023-07-13T11:23:55;5.87;;;1.77;;
27305;SDS011;14792;50.886;6.468;2023-07-13T11:26:55;8.40;;;1.90;;
27305;SDS011;14792;50.886;6.468;2023-07-13T11:30:07;7.15;;;1.72;;
27305;SDS011;14792;50.886;6.468;2023-07-13T11:36:22;10.10;;;1.77;;
27305;SDS011;14792;50.886;6.468;2023-07-13T11:39:24;4.12;;;1.40;;
27305;SDS011;14792;50.886;6.468;2023-07-13T11:42:24;10.23;;;2.08;;
27305;SDS011;14792;50.886;6.468;2023-07-13T11:45:25;6.70;;;1.37;;
27305;SDS011;14792;50.886;6.468;2023-07-13T11:48:28;5.47;;;1.85;;
27305;SDS011;14792;50.886;6.468;2023-07-13T11:51:29;4.92;;;1.60;;
27305;SDS011;14792;50.886;6.468;2023-07-13T11:54:31;5.72;;;1.50;;
27305;SDS011;14792;50.886;6.468;2023-07-13T11:57:37;6.45;;;1.82;;
27305;SDS011;14792;50.886;6.468;2023-07-13T12:00:37;5.25;;;1.70;;
27305;SDS011;14792;50.886;6.468;2023-07-13T12:03:39;5.08;;;1.80;;
27305;SDS011;14792;50.886;6.468;2023-07-13T12:06:40;9.78;;;1.98;;
27305;SDS011;14792;50.886;6.468;2023-07-13T12:09:42;8.40;;;2.15;;
27305;SDS011;14792;50.886;6.468;2023-07-13T12:13:03;5.55;;;1.55;;
27305;SDS011;14792;50.886;6.468;2023-07-13T12:15:48;5.20;;;1.82;;
27305;SDS011;14792;50.886;6.468;2023-07-13T12:18:50;5.85;;;1.32;;
27305;SDS011;14792;50.886;6.468;2023-07-13T12:21:53;8.00;;;1.67;;
27305;SDS011;14792;50.886;6.468;2023-07-13T12:24:53;7.28;;;1.60;;
27305;SDS011;14792;50.886;6.468;2023-07-13T12:27:54;6.85;;;1.52;;
27305;SDS011;14792;50.886;6.468;2023-07-13T12:31:00;7.25;;;1.70;;
27305;SDS011;14792;50.886;6.468;2023-07-13T12:34:02;6.53;;;1.47;;
27305;SDS011;14792;50.886;6.468;2023-07-13T12:37:14;7.97;;;1.52;;
27305;SDS011;14792;50.886;6.468;2023-07-13T12:40:16;4.55;;;1.52;;
27305;SDS011;14792;50.886;6.468;2023-07-13T12:43:19;6.75;;;1.35;;
27305;SDS011;14792;50.886;6.468;2023-07-13T12:46:20;4.83;;;1.30;;
27305;SDS011;14792;50.886;6.468;2023-07-13T12:49:23;9.15;;;1.70;;
27305;SDS011;14792;50.886;6.468;2023-07-13T12:52:28;8.15;;;1.42;;
27305;SDS011;14792;50.886;6.468;2023-07-13T12:55:24;8.35;;;1.47;;
27305;SDS011;14792;50.886;6.468;2023-07-13T12:58:26;6.72;;;1.40;;
27305;SDS011;14792;50.886;6.468;2023-07-13T13:01:27;9.95;;;1.90;;
27305;SDS011;14792;50.886;6.468;2023-07-13T13:04:29;3.40;;;1.30;;
27305;SDS011;14792;50.886;6.468;2023-07-13T13:07:30;3.62;;;1.37;;
27305;SDS011;14792;50.886;6.468;2023-07-13T13:10:32;5.40;;;1.15;;
27305;SDS011;14792;50.886;6.468;2023-07-13T13:13:33;5.62;;;1.35;;
27305;SDS011;14792;50.886;6.468;2023-07-13T13:16:37;7.42;;;1.40;;
27305;SDS011;14792;50.886;6.468;2023-07-13T13:19:37;13.48;;;1.72;;
27305;SDS011;14792;50.886;6.468;2023-07-13T13:22:39;8.75;;;1.40;;
27305;SDS011;14792;50.886;6.468;2023-07-13T13:25:41;4.87;;;1.37;;
27305;SDS011;14792;50.886;6.468;2023-07-13T13:28:43;2.60;;;1.12;;
27305;SDS011;14792;50.886;6.468;2023-07-13T13:31:44;8.18;;;1.40;;
27305;SDS011;14792;50.886;6.468;2023-07-13T13:34:45;5.37;;;1.32;;
27305;SDS011;14792;50.886;6.468;2023-07-13T13:37:47;6.42;;;1.42;;
27305;SDS011;14792;50.886;6.468;2023-07-13T13:40:48;5.85;;;1.50;;
27305;SDS011;14792;50.886;6.468;2023-07-13T13:43:50;5.80;;;1.30;;
27305;SDS011;14792;50.886;6.468;2023-07-13T13:46:52;6.12;;;1.07;;
27305;SDS011;14792;50.886;6.468;2023-07-13T13:49:53;4.35;;;1.62;;
27305;SDS011;14792;50.886;6.468;2023-07-13T13:52:55;6.15;;;1.37;;
27305;SDS011;14792;50.886;6.468;2023-07-13T13:55:56;4.87;;;1.45;;
27305;SDS011;14792;50.886;6.468;2023-07-13T13:58:58;5.95;;;1.22;;
27305;SDS011;14792;50.886;6.468;2023-07-13T14:02:00;3.25;;;1.40;;
27305;SDS011;14792;50.886;6.468;2023-07-13T14:05:02;4.53;;;1.30;;
27305;SDS011;14792;50.886;6.468;2023-07-13T14:08:03;7.25;;;1.67;;
27305;SDS011;14792;50.886;6.468;2023-07-13T14:11:04;4.30;;;1.30;;
27305;SDS011;14792;50.886;6.468;2023-07-13T14:14:08;3.30;;;1.30;;
27305;SDS011;14792;50.886;6.468;2023-07-13T14:20:10;8.80;;;1.47;;
27305;SDS011;14792;50.886;6.468;2023-07-13T14:23:12;4.35;;;1.20;;
27305;SDS011;14792;50.886;6.468;2023-07-13T14:26:13;2.90;;;1.22;;
27305;SDS011;14792;50.886;6.468;2023-07-13T14:29:18;4.08;;;1.25;;
27305;SDS011;14792;50.886;6.468;2023-07-13T14:32:18;8.65;;;1.40;;
27305;SDS011;14792;50.886;6.468;2023-07-13T14:35:20;5.03;;;1.40;;
27305;SDS011;14792;50.886;6.468;2023-07-13T14:38:21;3.27;;;1.47;;
27305;SDS011;14792;50.886;6.468;2023-07-13T14:41:23;5.87;;;1.47;;
27305;SDS011;14792;50.886;6.468;2023-07-13T14:44:25;7.50;;;1.22;;
27305;SDS011;14792;50.886;6.468;2023-07-13T14:47:26;4.92;;;1.20;;
27305;SDS011;14792;50.886;6.468;2023-07-13T14:50:31;6.70;;;1.50;;
27305;SDS011;14792;50.886;6.468;2023-07-13T14:53:29;4.40;;;1.52;;
27305;SDS011;14792;50.886;6.468;2023-07-13T14:56:31;6.90;;;1.70;;
27305;SDS011;14792;50.886;6.468;2023-07-13T14:59:32;4.58;;;1.35;;
27305;SDS011;14792;50.886;6.468;2023-07-13T15:02:34;5.53;;;1.37;;
27305;SDS011;14792;50.886;6.468;2023-07-13T15:05:36;3.95;;;1.27;;
27305;SDS011;14792;50.886;6.468;2023-07-13T15:08:38;5.53;;;1.35;;
27305;SDS011;14792;50.886;6.468;2023-07-13T15:14:41;5.47;;;1.40;;
27305;SDS011;14792;50.886;6.468;2023-07-13T15:17:43;3.05;;;1.20;;
27305;SDS011;14792;50.886;6.468;2023-07-13T15:20:44;3.65;;;0.93;;
27305;SDS011;14792;50.886;6.468;2023-07-13T15:23:46;5.47;;;1.22;;
27305;SDS011;14792;50.886;6.468;2023-07-13T15:26:47;8.53;;;1.95;;
27305;SDS011;14792;50.886;6.468;2023-07-13T15:29:49;8.60;;;1.12;;
27305;SDS011;14792;50.886;6.468;2023-07-13T15:32:50;5.28;;;1.60;;
27305;SDS011;14792;50.886;6.468;2023-07-13T15:35:52;5.97;;;1.80;;
27305;SDS011;14792;50.886;6.468;2023-07-13T15:38:54;9.93;;;1.52;;
27305;SDS011;14792;50.886;6.468;2023-07-13T15:41:55;6.03;;;1.52;;
27305;SDS011;14792;50.886;6.468;2023-07-13T15:44:57;6.20;;;1.60;;
27305;SDS011;14792;50.886;6.468;2023-07-13T15:47:59;6.60;;;1.62;;
27305;SDS011;14792;50.886;6.468;2023-07-13T15:51:01;6.45;;;1.35;;
27305;SDS011;14792;50.886;6.468;2023-07-13T15:54:02;10.05;;;1.40;;
27305;SDS011;14792;50.886;6.468;2023-07-13T15:57:03;8.30;;;1.80;;
27305;SDS011;14792;50.886;6.468;2023-07-13T16:00:12;8.65;;;1.55;;
27305;SDS011;14792;50.886;6.468;2023-07-13T16:03:09;5.92;;;1.55;;
27305;SDS011;14792;50.886;6.468;2023-07-13T16:06:24;5.22;;;1.70;;
27305;SDS011;14792;50.886;6.468;2023-07-13T16:09:28;6.30;;;1.37;;
27305;SDS011;14792;50.886;6.468;2023-07-13T16:12:29;6.67;;;1.50;;
27305;SDS011;14792;50.886;6.468;2023-07-13T16:15:31;6.53;;;1.50;;
27305;SDS011;14792;50.886;6.468;2023-07-13T16:18:32;4.50;;;1.60;;
27305;SDS011;14792;50.886;6.468;2023-07-13T16:21:41;4.17;;;1.40;;
27305;SDS011;14792;50.886;6.468;2023-07-13T16:24:39;7.62;;;1.70;;
27305;SDS011;14792;50.886;6.468;2023-07-13T16:27:41;10.35;;;1.55;;
27305;SDS011;14792;50.886;6.468;2023-07-13T16:30:42;8.03;;;1.77;;
27305;SDS011;14792;50.886;6.468;2023-07-13T16:33:44;5.08;;;2.00;;
27305;SDS011;14792;50.886;6.468;2023-07-13T16:36:45;4.25;;;1.40;;
27305;SDS011;14792;50.886;6.468;2023-07-13T16:39:55;3.05;;;1.50;;
27305;SDS011;14792;50.886;6.468;2023-07-13T16:42:52;3.58;;;1.50;;
27305;SDS011;14792;50.886;6.468;2023-07-13T16:46:00;4.33;;;1.70;;
27305;SDS011;14792;50.886;6.468;2023-07-13T16:49:00;4.33;;;1.77;;
27305;SDS011;14792;50.886;6.468;2023-07-13T16:52:01;9.53;;;2.02;;
27305;SDS011;14792;50.886;6.468;2023-07-13T16:55:03;3.55;;;1.47;;
27305;SDS011;14792;50.886;6.468;2023-07-13T16:58:05;5.25;;;1.60;;
27305;SDS011;14792;50.886;6.468;2023-07-13T17:01:06;5.22;;;1.62;;
27305;SDS011;14792;50.886;6.468;2023-07-13T17:04:09;4.42;;;1.50;;
27305;SDS011;14792;50.886;6.468;2023-07-13T17:07:11;6.65;;;1.77;;
27305;SDS011;14792;50.886;6.468;2023-07-13T17:10:15;4.42;;;1.50;;
27305;SDS011;14792;50.886;6.468;2023-07-13T17:13:16;6.70;;;2.30;;
27305;SDS011;14792;50.886;6.468;2023-07-13T17:16:15;9.98;;;2.10;;
27305;SDS011;14792;50.886;6.468;2023-07-13T17:19:17;5.22;;;1.55;;
27305;SDS011;14792;50.886;6.468;2023-07-13T17:22:19;4.22;;;1.52;;
27305;SDS011;14792;50.886;6.468;2023-07-13T17:25:21;5.05;;;1.35;;
27305;SDS011;14792;50.886;6.468;2023-07-13T17:28:22;6.62;;;1.67;;
27305;SDS011;14792;50.886;6.468;2023-07-13T17:31:23;6.50;;;1.80;;
27305;SDS011;14792;50.886;6.468;2023-07-13T17:34:25;3.92;;;1.55;;
27305;SDS011;14792;50.886;6.468;2023-07-13T17:37:26;2.55;;;1.40;;
27305;SDS011;14792;50.886;6.468;2023-07-13T17:40:28;6.45;;;1.60;;
27305;SDS011;14792;50.886;6.468;2023-07-13T17:43:30;5.47;;;1.32;;
27305;SDS011;14792;50.886;6.468;2023-07-13T17:46:31;6.05;;;1.75;;
27305;SDS011;14792;50.886;6.468;2023-07-13T17:49:33;3.58;;;1.30;;
27305;SDS011;14792;50.886;6.468;2023-07-13T17:52:34;8.78;;;1.52;;
27305;SDS011;14792;50.886;6.468;2023-07-13T17:55:36;2.80;;;1.50;;
27305;SDS011;14792;50.886;6.468;2023-07-13T17:58:38;2.70;;;1.20;;
27305;SDS011;14792;50.886;6.468;2023-07-13T18:01:40;7.65;;;1.98;;
27305;SDS011;14792;50.886;6.468;2023-07-13T18:04:42;7.60;;;1.70;;
27305;SDS011;14792;50.886;6.468;2023-07-13T18:07:43;8.15;;;1.90;;
27305;SDS011;14792;50.886;6.468;2023-07-13T18:10:45;11.30;;;1.72;;
27305;SDS011;14792;50.886;6.468;2023-07-13T18:13:47;7.85;;;2.00;;
27305;SDS011;14792;50.886;6.468;2023-07-13T18:16:54;5.62;;;1.77;;
27305;SDS011;14792;50.886;6.468;2023-07-13T18:19:53;5.72;;;1.85;;
27305;SDS011;14792;50.886;6.468;2023-07-13T18:22:56;6.00;;;1.60;;
27305;SDS011;14792;50.886;6.468;2023-07-13T18:25:56;4.45;;;1.52;;
27305;SDS011;14792;50.886;6.468;2023-07-13T18:28:57;4.95;;;1.47;;
27305;SDS011;14792;50.886;6.468;2023-07-13T18:31:59;4.97;;;1.50;;
27305;SDS011;14792;50.886;6.468;2023-07-13T18:35:01;4.60;;;1.57;;
27305;SDS011;14792;50.886;6.468;2023-07-13T18:38:02;7.90;;;1.65;;
27305;SDS011;14792;50.886;6.468;2023-07-13T18:41:04;4.83;;;1.65;;
27305;SDS011;14792;50.886;6.468;2023-07-13T18:44:05;2.70;;;1.37;;
27305;SDS011;14792;50.886;6.468;2023-07-13T18:47:09;3.95;;;1.32;;
27305;SDS011;14792;50.886;6.468;2023-07-13T18:50:19;5.50;;;1.77;;
27305;SDS011;14792;50.886;6.468;2023-07-13T18:53:20;6.75;;;2.00;;